Time;durP1;ratioP1;P1;durP2;ratioP2;P2;SDS_P1;SDS_P2;PMS_P1;PMS_P2;Temp;Humidity;BMP_temperature;BMP_pressure;BME280_temperature;BME280_humidity;BME280_pressure;Samples;Min_cycle;Max_cycle;Signal;HPM_P1;HPM_P2
2022/11/12 00:00:34;;;;;;;1.52;1.20;;;;;;;11.55;nan;-24139.63;5031866;28;20630;-67
2022/11/12 00:02:59;;;;;;;2.05;1.52;;;;;;;11.45;nan;-24136.81;5031074;28;20289;-67
2022/11/12 00:05:25;;;;;;;2.42;1.70;;;;;;;8.07;nan;-24042.28;5031955;28;20241;-67
2022/11/12 00:07:50;;;;;;;1.50;1.40;;;;;;;11.35;nan;-24133.97;5032065;28;20175;-67
2022/11/12 00:10:16;;;;;;;1.73;1.63;;;;;;;11.37;nan;-24134.53;5031971;28;20675;-67
2022/11/12 00:12:42;;;;;;;2.67;1.30;;;;;;;11.47;nan;-24137.34;5031779;28;20180;-67
2022/11/12 00:15:08;;;;;;;1.70;1.52;;;;;;;11.02;nan;-24124.81;5031514;28;20221;-67
2022/11/12 00:17:33;;;;;;;1.48;1.38;;;;;;;11.41;nan;-24135.81;5031584;28;20221;-66
2022/11/12 00:19:58;;;;;;;2.20;1.55;;;;;;;11.19;nan;-24129.59;5031397;28;20209;-67
2022/11/12 00:22:24;;;;;;;2.17;1.52;;;;;;;10.61;nan;-24113.41;5031716;28;20657;-66
2022/11/12 00:24:49;;;;;;;1.40;1.30;;;;;;;11.10;nan;-24126.94;5031557;28;20306;-66
2022/11/12 00:27:15;;;;;;;2.60;1.70;;;;;;;10.96;nan;-24123.13;5031717;28;20218;-66
2022/11/12 00:29:40;;;;;;;2.53;1.70;;;;;;;10.90;nan;-24121.56;5031791;28;20284;-66
2022/11/12 00:32:06;;;;;;;2.10;1.70;;;;;;;11.01;nan;-24124.53;5031474;28;20692;-66
2022/11/12 00:34:32;;;;;;;2.90;1.90;;;;;;;9.30;nan;-24076.81;5031243;28;20174;-67
2022/11/12 00:36:58;;;;;;;2.58;1.70;;;;;;;10.67;nan;-24114.94;5031343;28;20646;-66
2022/11/12 00:39:23;;;;;;;2.35;1.73;;;;;;;10.58;nan;-24112.69;5031474;28;20182;-66
2022/11/12 00:41:49;;;;;;;3.47;2.00;;;;;;;10.59;nan;-24112.97;5031507;28;20262;-66
2022/11/12 00:44:14;;;;;;;3.25;1.80;;;;;;;10.53;nan;-24111.28;5031410;28;20330;-67
2022/11/12 00:46:40;;;;;;;2.58;1.45;;;;;;;10.43;nan;-24108.31;5031461;28;20172;-66
2022/11/12 00:49:06;;;;;;;3.85;1.80;;;;;;;10.76;nan;-24117.47;5031541;28;20178;-67
2022/11/12 00:51:31;;;;;;;2.40;2.05;;;;;;;10.37;nan;-24106.63;5031709;28;20241;-65
2022/11/12 00:53:57;;;;;;;2.13;1.75;;;;;;;10.62;nan;-24113.69;5031164;28;20225;-67
2022/11/12 00:56:22;;;;;;;3.90;2.10;;;;;;;10.29;nan;-24104.38;5031254;28;20233;-65
2022/11/12 00:58:48;;;;;;;2.53;2.00;;;;;;;10.54;nan;-24111.56;5031196;28;20545;-65
2022/11/12 01:01:14;;;;;;;2.17;1.80;;;;;;;10.44;nan;-24108.59;5031497;28;20175;-65
2022/11/12 01:03:41;;;;;;;3.22;1.85;;;;;;;10.39;nan;-24107.19;5030998;28;20203;-65
2022/11/12 01:06:10;;;;;;;3.40;2.00;;;;;;;10.04;nan;-24097.59;5031489;28;20526;-65
2022/11/12 01:08:36;;;;;;;2.33;1.88;;;;;;;10.05;nan;-24097.72;5031088;28;20179;-65
2022/11/12 01:11:13;;;;;;;3.55;2.13;;;;;;;10.39;nan;-24107.31;5031170;28;20183;-66
2022/11/12 01:13:41;;;;;;;2.53;2.13;;;;;;;10.17;nan;-24101.25;5031130;28;20638;-66
2022/11/12 01:16:09;;;;;;;2.85;2.15;;;;;;;10.52;nan;-24111.00;5034864;28;20206;-65
2022/11/12 01:18:35;;;;;;;2.42;1.83;;;;;;;10.11;nan;-24099.41;5035039;28;20171;-65
2022/11/12 01:21:05;;;;;;;2.53;1.90;;;;;;;10.50;nan;-24110.28;5034934;28;20221;-65
2022/11/12 01:23:35;;;;;;;4.10;2.75;;;;;;;9.94;nan;-24094.63;5035027;28;20305;-66
2022/11/12 01:26:09;;;;;;;2.05;1.63;;;;;;;10.00;nan;-24096.31;5034351;28;20651;-66
2022/11/12 01:28:35;;;;;;;2.70;2.15;;;;;;;9.91;nan;-24093.78;5035164;28;20258;-66
2022/11/12 01:31:19;;;;;;;2.83;2.05;;;;;;;9.90;nan;-24093.63;5034972;28;20218;-66
2022/11/12 01:33:47;;;;;;;3.30;2.25;;;;;;;10.15;nan;-24100.69;5034987;28;20175;-66
2022/11/12 01:36:14;;;;;;;2.63;1.98;;;;;;;9.85;nan;-24092.22;5034849;28;20167;-66
2022/11/12 01:38:41;;;;;;;3.85;2.63;;;;;;;9.86;nan;-24092.34;5034469;28;20635;-66
2022/11/12 01:41:09;;;;;;;3.47;2.25;;;;;;;9.98;nan;-24095.75;5034939;28;20172;-66
2022/11/12 01:43:34;;;;;;;2.42;2.20;;;;;;;9.97;nan;-24095.47;5034609;28;20192;-66
2022/11/12 01:46:04;;;;;;;2.90;2.20;;;;;;;9.98;nan;-24095.75;5034622;28;20171;-66
2022/11/12 01:48:38;;;;;;;3.75;2.28;;;;;;;9.08;nan;-24070.72;5034855;28;20168;-66
2022/11/12 01:51:06;;;;;;;3.83;2.22;;;;;;;8.62;nan;-24057.72;5034547;28;20297;-66
2022/11/12 01:53:40;;;;;;;2.45;2.13;;;;;;;9.76;nan;-24089.66;5034811;28;20298;-66
2022/11/12 01:56:06;;;;;;;3.92;2.00;;;;;;;9.29;nan;-24076.53;5023349;28;20215;-66
2022/11/12 01:58:32;;;;;;;3.35;2.67;;;;;;;10.12;nan;-24099.84;5014253;28;20164;-65
2022/11/12 02:01:00;;;;;;;2.30;2.10;;;;;;;9.91;nan;-24093.78;5013897;28;20180;-65
2022/11/12 02:03:25;;;;;;;3.05;2.35;;;;;;;10.06;nan;-24098.00;5013738;28;20198;-66
2022/11/12 02:05:55;;;;;;;2.45;2.03;;;;;;;10.08;nan;-24098.56;5014004;28;20168;-66
2022/11/12 02:08:23;;;;;;;5.28;3.08;;;;;;;10.06;nan;-24098.16;5014021;28;20169;-66
2022/11/12 02:10:49;;;;;;;8.48;2.17;;;;;;;10.08;nan;-24098.56;5014175;28;20180;-66
2022/11/12 02:15:59;;;;;;;3.10;2.35;;;;;;;9.49;nan;-24082.03;5014749;28;20179;-66
2022/11/12 02:18:24;;;;;;;4.22;2.60;;;;;;;9.79;nan;-24090.38;5014558;28;20172;-65
2022/11/12 02:20:58;;;;;;;2.92;2.17;;;;;;;9.85;nan;-24092.06;5013849;28;20176;-65
2022/11/12 02:23:23;;;;;;;3.03;1.95;;;;;;;10.06;nan;-24098.00;5014357;28;20184;-66
2022/11/12 02:25:49;;;;;;;3.45;2.00;;;;;;;9.78;nan;-24090.25;5013505;28;20231;-66
2022/11/12 02:28:15;;;;;;;3.25;2.58;;;;;;;9.41;nan;-24079.91;5014023;28;20164;-65
2022/11/12 02:30:48;;;;;;;3.55;2.10;;;;;;;9.41;nan;-24079.78;5013928;28;20176;-65
2022/11/12 02:33:14;;;;;;;4.22;2.65;;;;;;;9.43;nan;-24080.34;5012496;28;20531;-66
2022/11/12 02:35:40;;;;;;;7.60;2.08;;;;;;;9.82;nan;-24091.38;5013408;28;20554;-66
2022/11/12 02:38:07;;;;;;;5.32;2.47;;;;;;;8.80;nan;-24062.94;5014118;28;20182;-65
2022/11/12 02:40:33;;;;;;;1.77;1.67;;;;;;;9.41;nan;-24079.91;5013690;28;20238;-65
2022/11/12 02:43:01;;;;;;;2.25;1.80;;;;;;;9.28;nan;-24076.25;5013528;28;20172;-65
2022/11/12 02:45:27;;;;;;;2.75;2.15;;;;;;;9.76;nan;-24089.81;5013558;28;20172;-65
2022/11/12 02:47:53;;;;;;;2.88;2.10;;;;;;;9.78;nan;-24090.25;5013727;28;20168;-65
2022/11/12 02:50:19;;;;;;;2.35;2.10;;;;;;;9.63;nan;-24086.00;5013381;28;20246;-65
2022/11/12 02:52:44;;;;;;;2.78;2.45;;;;;;;9.80;nan;-24090.66;5013551;28;20611;-65
2022/11/12 02:55:11;;;;;;;3.50;2.47;;;;;;;9.76;nan;-24089.81;5013317;28;20207;-66
2022/11/12 02:57:38;;;;;;;6.50;3.28;;;;;;;9.66;nan;-24086.84;5013699;28;20578;-66
2022/11/12 03:00:11;;;;;;;2.20;2.00;;;;;;;9.69;nan;-24087.84;5013426;28;20172;-65
2022/11/12 03:02:42;;;;;;;2.42;2.13;;;;;;;9.90;nan;-24093.47;5013159;28;20215;-66
2022/11/12 03:05:09;;;;;;;3.30;2.47;;;;;;;9.71;nan;-24088.25;5013492;28;20204;-65
2022/11/12 03:07:35;;;;;;;2.70;2.13;;;;;;;9.87;nan;-24092.63;5013249;28;20545;-66
2022/11/12 03:10:00;;;;;;;4.60;2.65;;;;;;;9.85;nan;-24092.06;5013332;28;20176;-66
2022/11/12 03:12:25;;;;;;;3.08;2.40;;;;;;;9.37;nan;-24078.78;5013321;28;20261;-66
2022/11/12 03:14:51;;;;;;;3.97;2.60;;;;;;;9.54;nan;-24083.47;5012933;28;20176;-66
2022/11/12 03:17:16;;;;;;;4.53;2.60;;;;;;;9.55;nan;-24083.75;5013288;28;20180;-66
2022/11/12 03:19:42;;;;;;;4.17;2.73;;;;;;;9.56;nan;-24084.16;5013280;28;20202;-66
2022/11/12 03:22:07;;;;;;;3.37;2.43;;;;;;;9.37;nan;-24078.66;5013018;28;20179;-67
2022/11/12 03:24:32;;;;;;;3.73;2.70;;;;;;;9.41;nan;-24079.91;5012958;28;20270;-66
2022/11/12 03:26:58;;;;;;;4.43;2.63;;;;;;;9.72;nan;-24088.53;5012445;28;20222;-67
2022/11/12 03:29:25;;;;;;;3.15;2.80;;;;;;;9.32;nan;-24077.53;5013014;28;20206;-66
2022/11/12 03:31:50;;;;;;;4.90;2.53;;;;;;;9.60;nan;-24085.16;5013094;28;20231;-67
2022/11/12 03:34:15;;;;;;;3.85;2.92;;;;;;;9.02;nan;-24069.03;5012537;28;20179;-66
2022/11/12 03:36:41;;;;;;;4.87;3.10;;;;;;;9.36;nan;-24078.38;5013261;28;20180;-66
2022/11/12 03:39:06;;;;;;;6.20;3.47;;;;;;;9.27;nan;-24075.97;5013180;28;20172;-66
2022/11/12 03:41:32;;;;;;;6.40;3.50;;;;;;;9.44;nan;-24080.78;5012967;28;20191;-67
2022/11/12 03:43:57;;;;;;;7.45;3.85;;;;;;;9.07;nan;-24070.31;5012851;28;20227;-67
2022/11/12 03:46:23;;;;;;;4.30;3.60;;;;;;;9.07;nan;-24070.44;5013151;28;20242;-67
2022/11/12 03:48:48;;;;;;;5.68;3.65;;;;;;;9.40;nan;-24079.50;5013028;28;20180;-65
2022/11/12 03:51:15;;;;;;;5.33;3.00;;;;;;;9.13;nan;-24072.16;5012983;28;20176;-65
2022/11/12 03:53:41;;;;;;;5.33;3.80;;;;;;;9.20;nan;-24074.00;5012486;28;20211;-65
2022/11/12 03:56:06;;;;;;;6.43;2.47;;;;;;;9.01;nan;-24068.75;5011962;28;20184;-66
2022/11/12 03:58:31;;;;;;;4.60;3.40;;;;;;;9.31;nan;-24077.09;5012619;28;20191;-66
2022/11/12 04:00:57;;;;;;;7.10;4.00;;;;;;;8.98;nan;-24067.91;5012544;28;20635;-66
2022/11/12 04:03:22;;;;;;;4.10;2.77;;;;;;;9.08;nan;-24070.59;5012582;28;20282;-66
2022/11/12 04:08:34;;;;;;;4.80;3.47;;;;;;;9.45;nan;-24081.06;5012495;28;20179;-66
2022/11/12 04:11:02;;;;;;;6.70;3.60;;;;;;;9.18;nan;-24073.56;5012994;28;20180;-66
2022/11/12 04:13:28;;;;;;;4.18;3.25;;;;;;;9.36;nan;-24078.38;5012374;28;20187;-66
2022/11/12 04:22:09;;;;;;;5.75;3.65;;;;;;;9.41;nan;-24079.78;5012167;28;20267;-66
2022/11/12 04:27:21;;;;;;;4.90;3.40;;;;;;;9.42;nan;-24080.06;5012111;28;20235;-66
2022/11/12 04:32:34;;;;;;;7.53;3.87;;;;;;;9.29;nan;-24076.53;5012138;28;20242;-66
2022/11/12 04:34:59;;;;;;;4.90;3.80;;;;;;;9.35;nan;-24078.22;5012042;28;20525;-66
2022/11/12 04:37:28;;;;;;;5.97;4.47;;;;;;;9.40;nan;-24079.63;5012320;28;20658;-66
2022/11/12 04:39:54;;;;;;;8.00;3.40;;;;;;;9.31;nan;-24077.25;5011704;28;20608;-65
2022/11/12 04:45:09;;;;;;;4.90;2.80;;;;;;;9.51;nan;-24082.59;5023355;28;20222;-65
2022/11/12 04:47:37;;;;;;;5.32;3.40;;;;;;;9.06;nan;-24070.03;5023193;28;20183;-66
2022/11/12 04:50:07;;;;;;;4.20;2.73;;;;;;;9.05;nan;-24069.88;5027897;28;20199;-66
2022/11/12 04:52:32;;;;;;;5.35;3.60;;;;;;;9.01;nan;-24068.63;5030022;28;20187;-66
2022/11/12 04:54:58;;;;;;;4.07;2.90;;;;;;;9.31;nan;-24077.25;5027277;28;20192;-66
2022/11/12 04:57:24;;;;;;;4.03;3.42;;;;;;;9.14;nan;-24072.28;5024164;28;20268;-66
2022/11/12 04:59:50;;;;;;;4.32;2.70;;;;;;;9.52;nan;-24082.91;5027099;28;20195;-66
2022/11/12 05:02:16;;;;;;;4.93;3.40;;;;;;;9.05;nan;-24069.75;5027714;28;20191;-66
2022/11/12 05:04:42;;;;;;;4.90;2.53;;;;;;;9.07;nan;-24070.31;5024171;28;20210;-66
2022/11/12 05:07:08;;;;;;;5.40;3.00;;;;;;;9.32;nan;-24077.38;5027964;28;20192;-66
2022/11/12 05:09:34;;;;;;;5.07;3.00;;;;;;;9.24;nan;-24075.25;5033045;28;20233;-66
2022/11/12 05:12:00;;;;;;;4.80;2.83;;;;;;;9.23;nan;-24074.84;5021660;28;20211;-66
2022/11/12 05:14:25;;;;;;;4.77;3.00;;;;;;;8.92;nan;-24066.06;5023017;28;20195;-66
2022/11/12 05:16:51;;;;;;;5.47;2.87;;;;;;;8.84;nan;-24064.09;5030803;28;20601;-66
2022/11/12 05:19:17;;;;;;;8.93;3.60;;;;;;;8.91;nan;-24065.78;5030207;28;20658;-66
2022/11/12 05:24:27;;;;;;;3.80;2.43;;;;;;;9.25;nan;-24075.41;5029778;28;20260;-67
2022/11/12 05:26:52;;;;;;;5.03;3.37;;;;;;;9.46;nan;-24081.34;5027897;28;20649;-66
2022/11/12 05:29:18;;;;;;;6.80;3.80;;;;;;;9.48;nan;-24081.91;5029467;28;20624;-65
2022/11/12 05:31:44;;;;;;;7.55;3.55;;;;;;;9.55;nan;-24083.88;5023207;28;20202;-67
2022/11/12 05:34:10;;;;;;;6.40;3.92;;;;;;;9.57;nan;-24084.31;5023236;28;20177;-66
2022/11/12 05:36:36;;;;;;;6.85;3.70;;;;;;;9.26;nan;-24075.69;5034393;28;20189;-66
2022/11/12 05:39:02;;;;;;;6.22;3.30;;;;;;;9.16;nan;-24072.84;5036246;28;20183;-66
2022/11/12 05:41:27;;;;;;;5.78;3.70;;;;;;;9.08;nan;-24070.59;5017905;28;20187;-66
2022/11/12 05:43:53;;;;;;;5.13;3.67;;;;;;;9.52;nan;-24083.03;5017547;28;20200;-66
2022/11/12 05:46:18;;;;;;;6.45;4.00;;;;;;;9.48;nan;-24081.91;5018139;28;20183;-66
2022/11/12 05:48:44;;;;;;;5.60;3.88;;;;;;;9.50;nan;-24082.47;5017793;28;20697;-66
2022/11/12 05:51:09;;;;;;;7.03;4.05;;;;;;;9.61;nan;-24085.56;5018160;28;20176;-66
2022/11/12 05:53:35;;;;;;;6.38;3.38;;;;;;;9.44;nan;-24080.63;5022107;28;20225;-66
2022/11/12 05:56:01;;;;;;;6.30;3.90;;;;;;;9.10;nan;-24071.31;5024732;28;20267;-66
2022/11/12 05:58:27;;;;;;;4.93;3.28;;;;;;;8.88;nan;-24064.94;5031660;28;20564;-66
2022/11/12 06:00:52;;;;;;;6.53;3.95;;;;;;;9.09;nan;-24070.88;5034607;28;20175;-66
2022/11/12 06:03:17;;;;;;;6.50;3.80;;;;;;;9.41;nan;-24079.91;5013933;28;20210;-66
2022/11/12 06:05:43;;;;;;;7.07;3.65;;;;;;;9.19;nan;-24073.84;5014468;28;20176;-66
2022/11/12 06:08:08;;;;;;;5.78;3.38;;;;;;;9.38;nan;-24079.06;5014416;28;20191;-66
2022/11/12 06:10:34;;;;;;;6.63;3.92;;;;;;;;;;5014477;28;20549;-66
2022/11/12 06:12:59;;;;;;;5.88;3.25;;;;;;;9.09;nan;-24071.03;5014480;28;20218;-66
2022/11/12 06:15:28;;;;;;;7.50;4.00;;;;;;;9.20;nan;-24074.00;5014193;28;20188;-67
2022/11/12 06:17:54;;;;;;;7.63;3.77;;;;;;;9.44;nan;-24080.78;5018173;28;20180;-66
2022/11/12 06:20:20;;;;;;;5.00;2.97;;;;;;;9.15;nan;-24072.72;5019252;28;20530;-67
2022/11/12 06:22:45;;;;;;;7.40;3.90;;;;;;;9.07;nan;-24070.31;5024760;28;20565;-67
2022/11/12 06:25:11;;;;;;;4.63;3.23;;;;;;;9.11;nan;-24071.44;5023671;28;20207;-67
2022/11/12 06:27:36;;;;;;;7.10;3.40;;;;;;;9.07;nan;-24070.31;5021688;28;20284;-67
2022/11/12 06:30:03;;;;;;;5.83;3.20;;;;;;;9.06;nan;-24070.03;5024721;28;20191;-67
2022/11/12 06:32:29;;;;;;;8.13;3.53;;;;;;;9.37;nan;-24078.66;5023874;28;20180;-67
2022/11/12 06:34:54;;;;;;;8.17;4.07;;;;;;;9.45;nan;-24081.06;5025131;28;20230;-67
2022/11/12 06:37:20;;;;;;;6.17;3.33;;;;;;;9.17;nan;-24073.28;5027178;28;20214;-67
2022/11/12 06:39:47;;;;;;;7.43;3.63;;;;;;;9.30;nan;-24076.81;5020627;28;20218;-67
2022/11/12 06:42:13;;;;;;;5.87;3.13;;;;;;;9.28;nan;-24076.38;5022344;28;20238;-66
2022/11/12 06:44:38;;;;;;;6.37;3.23;;;;;;;9.30;nan;-24076.94;5017767;28;20230;-66
2022/11/12 06:47:04;;;;;;;6.13;3.37;;;;;;;8.06;nan;-24042.00;5020309;28;20616;-67
2022/11/12 06:49:29;;;;;;;5.27;3.40;;;;;;;8.85;nan;-24064.22;5028612;28;20241;-67
2022/11/12 06:51:54;;;;;;;6.50;3.60;;;;;;;9.23;nan;-24074.84;5033317;28;20198;-67
2022/11/12 06:54:20;;;;;;;5.37;3.20;;;;;;;9.31;nan;-24077.09;5018528;28;20182;-68
2022/11/12 06:56:45;;;;;;;6.40;2.83;;;;;;;9.36;nan;-24078.50;5024937;28;20184;-68
2022/11/12 06:59:11;;;;;;;6.07;3.63;;;;;;;8.85;nan;-24064.38;5022511;28;20237;-68
2022/11/12 07:01:36;;;;;;;4.17;2.87;;;;;;;9.31;nan;-24077.09;5020380;28;20183;-68
2022/11/12 07:04:02;;;;;;;5.57;2.97;;;;;;;9.00;nan;-24068.47;5021425;28;20195;-68
2022/11/12 07:06:27;;;;;;;4.43;2.60;;;;;;;9.00;nan;-24068.34;5024290;28;20180;-68
2022/11/12 07:08:53;;;;;;;5.23;2.87;;;;;;;9.52;nan;-24083.03;5022565;28;20655;-67
2022/11/12 07:11:19;;;;;;;3.00;2.60;;;;;;;9.62;nan;-24085.72;5024333;28;20264;-68
2022/11/12 07:13:45;;;;;;;3.67;2.40;;;;;;;9.51;nan;-24082.59;5017258;28;20676;-67
2022/11/12 07:16:12;;;;;;;3.50;2.30;;;;;;;9.52;nan;-24082.91;5025301;28;20202;-67
2022/11/12 07:18:38;;;;;;;4.40;2.53;;;;;;;9.80;nan;-24090.81;5030155;28;20194;-67
2022/11/12 07:21:06;;;;;;;3.33;2.42;;;;;;;9.96;nan;-24095.19;5022531;28;20180;-67
2022/11/12 07:23:33;;;;;;;3.90;2.58;;;;;;;10.10;nan;-24099.28;5024191;28;20368;-67
2022/11/12 07:26:22;;;;;;;3.38;2.88;;;;;;;9.73;nan;-24088.81;5019746;28;20246;-67
2022/11/12 07:28:49;;;;;;;2.45;2.10;;;;;;;9.92;nan;-24094.06;5019573;28;20657;-66
2022/11/12 07:31:17;;;;;;;2.78;2.20;;;;;;;10.26;nan;-24103.66;5032550;28;20254;-66
2022/11/12 07:33:43;;;;;;;2.60;2.20;;;;;;;10.01;nan;-24096.72;5032914;28;20179;-66
2022/11/12 07:36:11;;;;;;;4.00;2.45;;;;;;;10.16;nan;-24100.84;5032640;28;20171;-66
2022/11/12 07:38:38;;;;;;;3.75;2.40;;;;;;;10.40;nan;-24107.63;5032397;28;20167;-67
2022/11/12 07:41:23;;;;;;;3.58;2.47;;;;;;;10.28;nan;-24104.06;5031442;28;20176;-66
2022/11/12 07:43:50;;;;;;;2.88;2.30;;;;;;;10.30;nan;-24104.66;5032684;28;20206;-67
2022/11/12 07:46:19;;;;;;;2.38;2.10;;;;;;;9.94;nan;-24094.63;5032279;28;20206;-66
2022/11/12 07:48:45;;;;;;;3.20;2.30;;;;;;;9.94;nan;-24094.75;5032611;28;20166;-66
2022/11/12 07:51:15;;;;;;;3.33;2.17;;;;;;;9.66;nan;-24086.97;5032425;28;20202;-66
2022/11/12 07:53:41;;;;;;;3.33;1.70;;;;;;;9.97;nan;-24095.47;5032365;28;20167;-66
2022/11/12 07:56:10;;;;;;;5.28;2.58;;;;;;;9.88;nan;-24092.91;5032050;28;20603;-66
2022/11/12 07:58:36;;;;;;;2.30;1.70;;;;;;;9.67;nan;-24087.13;5020659;28;20183;-67
2022/11/12 08:01:22;;;;;;;3.30;1.73;;;;;;;9.82;nan;-24091.38;5020318;28;20190;-67
2022/11/12 08:03:48;;;;;;;1.95;1.65;;;;;;;9.56;nan;-24084.16;5023268;28;20204;-68
2022/11/12 08:06:13;;;;;;;1.45;1.35;;;;;;;9.92;nan;-24094.06;5022384;28;20724;-67
2022/11/12 08:08:39;;;;;;;1.50;1.38;;;;;;;9.78;nan;-24090.25;5019807;28;20262;-67
2022/11/12 08:11:04;;;;;;;2.42;1.48;;;;;;;9.40;nan;-24079.63;5020143;28;20202;-67
2022/11/12 08:13:30;;;;;;;1.73;1.50;;;;;;;9.62;nan;-24085.72;5022762;28;20639;-66
2022/11/12 08:15:59;;;;;;;2.45;2.10;;;;;;;9.90;nan;-24093.63;5024726;28;20176;-66
2022/11/12 08:18:25;;;;;;;2.58;1.65;;;;;;;9.58;nan;-24084.72;5017648;28;20214;-66
2022/11/12 08:20:50;;;;;;;1.92;1.67;;;;;;;9.60;nan;-24085.28;5011864;28;20279;-66
2022/11/12 08:23:37;;;;;;;2.55;1.90;;;;;;;9.94;nan;-24094.63;5022194;28;20186;-66
2022/11/12 08:26:04;;;;;;;2.17;1.98;;;;;;;9.62;nan;-24085.72;5030415;28;20254;-67
2022/11/12 08:28:31;;;;;;;2.00;1.67;;;;;;;9.60;nan;-24085.28;5030526;28;20178;-67
2022/11/12 08:30:57;;;;;;;2.03;1.60;;;;;;;7.29;nan;-24020.59;5016832;28;20266;-65
2022/11/12 08:33:22;;;;;;;1.75;1.63;;;;;;;9.81;nan;-24090.94;5026341;28;20192;-66
2022/11/12 08:35:48;;;;;;;1.70;1.60;;;;;;;10.09;nan;-24098.84;5025980;28;20187;-67
2022/11/12 08:38:13;;;;;;;3.30;1.70;;;;;;;9.73;nan;-24088.97;5023408;28;20182;-66
2022/11/12 08:40:39;;;;;;;1.73;1.63;;;;;;;10.00;nan;-24096.31;5029041;28;20299;-67
2022/11/12 08:43:07;;;;;;;2.25;1.90;;;;;;;9.85;nan;-24092.06;5030921;28;20164;-67
2022/11/12 08:45:35;;;;;;;1.80;1.70;;;;;;;9.67;nan;-24087.13;5018052;28;20180;-67
2022/11/12 08:48:03;;;;;;;2.83;1.75;;;;;;;9.77;nan;-24089.94;5010527;28;20180;-66
2022/11/12 08:50:29;;;;;;;3.05;2.08;;;;;;;6.63;nan;-24002.16;5011428;28;20721;-67
2022/11/12 08:53:06;;;;;;;2.78;1.67;;;;;;;10.04;nan;-24097.59;5013176;28;20175;-66
2022/11/12 08:55:33;;;;;;;1.67;1.48;;;;;;;10.20;nan;-24101.97;5021859;28;20619;-66
2022/11/12 08:58:02;;;;;;;1.73;1.63;;;;;;;10.11;nan;-24099.41;5021649;28;20183;-66
2022/11/12 09:00:37;;;;;;;2.42;1.80;;;;;;;9.93;nan;-24094.34;5020120;28;20187;-66
2022/11/12 09:03:04;;;;;;;2.05;1.80;;;;;;;9.94;nan;-24094.63;5020407;28;20261;-67
2022/11/12 09:05:30;;;;;;;2.35;1.40;;;;;;;9.93;nan;-24094.47;5020857;28;20209;-67
2022/11/12 09:08:01;;;;;;;5.15;1.70;;;;;;;10.14;nan;-24100.25;5017786;28;20209;-67
2022/11/12 09:10:27;;;;;;;2.00;1.60;;;;;;;9.94;nan;-24094.75;5022055;28;20650;-67
2022/11/12 09:12:53;;;;;;;2.00;1.80;;;;;;;10.04;nan;-24097.59;5031155;28;20179;-67
2022/11/12 09:15:19;;;;;;;1.60;1.50;;;;;;;10.14;nan;-24100.25;5020436;28;20175;-67
2022/11/12 09:17:45;;;;;;;3.20;2.08;;;;;;;10.20;nan;-24101.97;5011362;28;20176;-65
2022/11/12 09:20:10;;;;;;;1.73;1.50;;;;;;;10.21;nan;-24102.25;5011700;28;20173;-66
2022/11/12 09:22:35;;;;;;;2.17;1.60;;;;;;;10.55;nan;-24111.84;5011587;28;20172;-67
2022/11/12 09:25:01;;;;;;;2.10;1.52;;;;;;;10.40;nan;-24107.63;5011462;28;20737;-67
2022/11/12 09:27:27;;;;;;;3.42;1.90;;;;;;;10.59;nan;-24112.97;5011255;28;20647;-65
2022/11/12 09:29:52;;;;;;;2.88;2.10;;;;;;;10.51;nan;-24110.72;5011400;28;20180;-66
2022/11/12 09:32:18;;;;;;;3.13;2.03;;;;;;;10.35;nan;-24106.06;5011158;28;20172;-66
2022/11/12 09:34:43;;;;;;;2.95;1.98;;;;;;;10.28;nan;-24104.22;5011284;28;20168;-68
2022/11/12 09:37:09;;;;;;;3.13;2.42;;;;;;;10.69;nan;-24115.50;5015216;28;20630;-66
2022/11/12 09:39:34;;;;;;;3.67;2.15;;;;;;;10.63;nan;-24113.97;5015462;28;20231;-66
2022/11/12 09:42:05;;;;;;;3.42;2.08;;;;;;;10.29;nan;-24104.50;5014856;28;20178;-66
2022/11/12 09:44:31;;;;;;;3.33;2.47;;;;;;;10.33;nan;-24105.50;5015045;28;20204;-66
2022/11/12 09:47:03;;;;;;;3.15;2.00;;;;;;;10.38;nan;-24106.91;5014754;28;20702;-68
2022/11/12 09:49:49;;;;;;;2.40;2.00;;;;;;;10.49;nan;-24110.16;5014511;28;20178;-69
2022/11/12 09:52:25;;;;;;;3.20;2.20;;;;;;;10.75;nan;-24117.19;5013745;28;20630;-66
2022/11/12 09:55:00;;;;;;;2.70;1.90;;;;;;;10.76;nan;-24117.47;5014553;28;20183;-65
2022/11/12 09:57:25;;;;;;;2.20;2.00;;;;;;;11.32;nan;-24133.28;5014497;28;20200;-66
2022/11/12 09:59:51;;;;;;;2.08;1.55;;;;;;;11.07;nan;-24126.38;5016168;28;20217;-66
2022/11/12 10:02:38;;;;;;;2.65;2.22;;;;;;;11.36;nan;-24134.25;5023060;28;20286;-69
2022/11/12 10:05:18;;;;;;;3.30;2.33;;;;;;;11.25;nan;-24131.31;5029450;28;20211;-68
2022/11/12 10:08:14;;;;;;;5.55;2.40;;;;;;;11.27;nan;-24131.88;5031478;28;20167;-65
2022/11/12 10:10:57;;;;;;;3.25;1.90;;;;;;;11.20;nan;-24129.88;5014518;28;20172;-65
2022/11/12 10:13:22;;;;;;;3.65;2.30;;;;;;;11.21;nan;-24130.19;5014323;28;20168;-64
2022/11/12 10:18:50;;;;;;;3.83;2.33;;;;;;;11.04;nan;-24125.38;5013825;28;20172;-67
2022/11/12 10:21:27;;;;;;;7.55;2.17;;;;;;;11.14;nan;-24128.06;5013712;28;20179;-66
2022/11/12 10:23:53;;;;;;;2.33;1.70;;;;;;;11.11;nan;-24127.22;5045411;28;20283;-65
2022/11/12 10:26:21;;;;;;;2.88;1.80;;;;;;;11.00;nan;-24124.25;5013760;28;20227;-68
2022/11/12 10:28:48;;;;;;;4.13;2.22;;;;;;;11.02;nan;-24124.97;5013563;28;20243;-68
2022/11/12 10:31:16;;;;;;;1.92;1.40;;;;;;;11.16;nan;-24128.75;5013786;28;20255;-68
2022/11/12 10:33:42;;;;;;;2.92;1.95;;;;;;;11.50;nan;-24138.34;5013512;28;20175;-66
2022/11/12 10:36:20;;;;;;;2.42;1.60;;;;;;;11.38;nan;-24134.97;5013147;28;20564;-66
2022/11/12 10:38:49;;;;;;;2.95;1.60;;;;;;;11.22;nan;-24130.31;5013497;28;20246;-66
2022/11/12 10:41:26;;;;;;;2.40;1.83;;;;;;;11.41;nan;-24135.66;5013556;28;20164;-67
2022/11/12 10:44:03;;;;;;;2.08;1.70;;;;;;;11.27;nan;-24131.88;5013302;28;20203;-66
2022/11/12 10:46:30;;;;;;;3.78;1.60;;;;;;;11.70;nan;-24143.84;5012668;28;20180;-66
2022/11/12 10:49:23;;;;;;;1.58;1.48;;;;;;;11.52;nan;-24138.78;5012693;28;20199;-67
2022/11/12 10:51:57;;;;;;;1.98;1.45;;;;;;;11.55;nan;-24139.47;5010229;28;20192;-68
2022/11/12 10:54:25;;;;;;;1.77;1.65;;;;;;;11.79;nan;-24146.25;5013491;28;20180;-66
2022/11/12 10:56:51;;;;;;;2.13;1.33;;;;;;;11.60;nan;-24140.88;5045014;28;20267;-67
2022/11/12 10:59:17;;;;;;;3.42;1.65;;;;;;;11.58;nan;-24140.31;5012949;28;20262;-67
2022/11/12 11:01:44;;;;;;;3.05;1.85;;;;;;;11.47;nan;-24137.50;5013172;28;20172;-67
2022/11/12 11:04:28;;;;;;;1.55;1.45;;;;;;;11.59;nan;-24140.59;5012946;28;20200;-67
2022/11/12 11:07:06;;;;;;;2.88;1.60;;;;;;;11.05;nan;-24125.66;5013270;28;20183;-68
2022/11/12 11:09:33;;;;;;;1.80;1.58;;;;;;;11.31;nan;-24132.84;5012699;28;20167;-67
2022/11/12 11:11:59;;;;;;;1.92;1.50;;;;;;;11.33;nan;-24133.41;5012844;28;20199;-67
2022/11/12 11:14:30;;;;;;;2.78;1.73;;;;;;;11.03;nan;-24125.25;5013175;28;20246;-68
2022/11/12 11:17:07;;;;;;;1.58;1.30;;;;;;;11.39;nan;-24135.09;5014135;28;20257;-67
2022/11/12 11:19:41;;;;;;;1.63;1.50;;;;;;;11.03;nan;-24125.25;5025108;28;20655;-66
2022/11/12 11:22:36;;;;;;;1.88;1.38;;;;;;;11.01;nan;-24124.53;5016769;28;20184;-66
2022/11/12 11:25:22;;;;;;;2.00;1.73;;;;;;;11.11;nan;-24127.34;5017374;28;20203;-66
2022/11/12 11:28:38;;;;;;;1.80;1.50;;;;;;;11.08;nan;-24126.66;5032303;28;20578;-67
2022/11/12 11:31:16;;;;;;;1.50;1.40;;;;;;;11.00;nan;-24124.25;5019737;28;20191;-66
2022/11/12 11:33:56;;;;;;;2.78;1.70;;;;;;;10.91;nan;-24121.72;5031121;28;20179;-66
2022/11/12 11:36:57;;;;;;;1.95;1.70;;;;;;;10.91;nan;-24121.72;5032283;28;20217;-66
2022/11/12 11:39:37;;;;;;;1.83;1.58;;;;;;;10.91;nan;-24121.72;5027126;28;20214;-66
2022/11/12 11:42:45;;;;;;;4.45;2.22;;;;;;;10.92;nan;-24122.13;5031932;28;20171;-66
2022/11/12 11:45:28;;;;;;;2.38;1.70;;;;;;;10.97;nan;-24123.41;5021303;28;20242;-67
2022/11/12 11:48:07;;;;;;;2.38;1.88;;;;;;;10.88;nan;-24120.88;5032115;28;20163;-67
2022/11/12 11:50:38;;;;;;;1.60;1.50;;;;;;;10.72;nan;-24116.50;5031698;28;20190;-67
2022/11/12 11:53:16;;;;;;;2.15;1.85;;;;;;;10.80;nan;-24118.75;5031367;28;20692;-67
2022/11/12 11:55:50;;;;;;;2.28;2.03;;;;;;;10.78;nan;-24118.19;5031801;28;20194;-67
2022/11/12 11:58:34;;;;;;;2.63;1.83;;;;;;;10.80;nan;-24118.75;5031286;28;20202;-66
2022/11/12 12:01:23;;;;;;;1.75;1.58;;;;;;;10.81;nan;-24118.91;5031159;28;20160;-67
2022/11/12 12:04:11;;;;;;;3.22;1.80;;;;;;;10.61;nan;-24113.41;5031721;28;20199;-66
2022/11/12 12:07:25;;;;;;;2.25;1.77;;;;;;;10.71;nan;-24116.22;5026173;28;20176;-66
2022/11/12 12:10:04;;;;;;;2.85;1.83;;;;;;;10.71;nan;-24116.06;5026022;28;20206;-66
2022/11/12 12:12:38;;;;;;;1.60;1.40;;;;;;;10.70;nan;-24115.78;5017821;28;20184;-67
2022/11/12 12:15:12;;;;;;;2.15;1.90;;;;;;;10.70;nan;-24115.94;5023127;28;20183;-66
2022/11/12 12:17:52;;;;;;;1.70;1.60;;;;;;;10.81;nan;-24119.03;5018573;28;20184;-66
2022/11/12 12:20:34;;;;;;;2.33;2.00;;;;;;;10.42;nan;-24108.16;5012736;28;20237;-66